Time;durP1;ratioP1;P1;durP2;ratioP2;P2;SDS_P1;SDS_P2;PMS_P1;PMS_P2;Temp;Humidity;BMP_temperature;BMP_pressure;BME280_temperature;BME280_humidity;BME280_pressure;Samples;Min_cycle;Max_cycle;Signal;HPM_P1;HPM_P2
2022/12/27 00:02:23;;;;;;;95.88;62.38;;;9.10;99.90;;;;;;5103342;28;20080;-76
2022/12/27 00:04:54;;;;;;;100.38;61.92;;;9.00;99.90;;;;;;5100369;28;20028;-76
2022/12/27 00:07:20;;;;;;;96.60;59.17;;;9.00;99.90;;;;;;5111070;28;20050;-76
2022/12/27 00:09:49;;;;;;;96.38;59.97;;;9.10;99.90;;;;;;5104143;28;20502;-76
2022/12/27 00:12:15;;;;;;;104.72;64.97;;;9.00;99.90;;;;;;5106625;28;20019;-76
2022/12/27 00:14:40;;;;;;;102.95;63.30;;;9.10;99.90;;;;;;5109055;28;20028;-76
2022/12/27 00:17:06;;;;;;;102.45;64.63;;;9.00;99.90;;;;;;5091680;28;20373;-76
2022/12/27 00:19:32;;;;;;;98.78;61.63;;;9.00;99.90;;;;;;5101671;28;20021;-76
2022/12/27 00:21:58;;;;;;;105.45;63.78;;;9.00;99.90;;;;;;5095793;28;20059;-76
2022/12/27 00:24:24;;;;;;;102.03;61.45;;;9.10;99.90;;;;;;5109609;28;20107;-76
2022/12/27 00:26:49;;;;;;;106.85;63.95;;;9.00;99.90;;;;;;5106088;28;20103;-76
2022/12/27 00:29:15;;;;;;;107.85;62.15;;;9.00;99.90;;;;;;5093853;28;20016;-76
2022/12/27 00:31:41;;;;;;;96.55;60.25;;;9.10;99.90;;;;;;5098611;28;20034;-76
2022/12/27 00:34:07;;;;;;;98.80;62.33;;;9.10;99.90;;;;;;5107588;28;20555;-76
2022/12/27 00:36:33;;;;;;;102.93;64.10;;;9.10;99.90;;;;;;5095488;28;20027;-75
2022/12/27 00:38:59;;;;;;;103.97;63.30;;;9.10;99.90;;;;;;5105836;28;20051;-75
2022/12/27 00:41:25;;;;;;;101.80;62.20;;;9.10;99.90;;;;;;5116101;28;20011;-78
2022/12/27 00:43:52;;;;;;;103.47;61.67;;;9.00;99.90;;;;;;5105888;28;20032;-78
2022/12/27 00:46:18;;;;;;;100.68;61.63;;;9.10;99.90;;;;;;5104083;28;20756;-78
2022/12/27 00:48:44;;;;;;;100.00;60.08;;;9.10;99.90;;;;;;5109388;28;20028;-78
2022/12/27 00:51:16;;;;;;;99.30;62.28;;;9.00;99.90;;;;;;5101755;28;20024;-78
2022/12/27 00:53:42;;;;;;;96.57;60.58;;;9.10;99.90;;;;;;5100682;28;20396;-78
2022/12/27 00:56:15;;;;;;;98.90;63.38;;;9.10;99.90;;;;;;5100897;28;20019;-78
2022/12/27 00:58:40;;;;;;;101.60;60.10;;;9.10;99.90;;;;;;5102282;28;20020;-78
2022/12/27 01:01:17;;;;;;;97.95;63.30;;;9.10;99.90;;;;;;5101947;28;20026;-78
2022/12/27 01:03:43;;;;;;;98.82;62.13;;;9.10;99.90;;;;;;5100988;28;20049;-78
2022/12/27 01:06:11;;;;;;;94.45;59.40;;;9.10;99.90;;;;;;5101248;28;20107;-78
2022/12/27 01:08:37;;;;;;;99.97;59.42;;;9.10;99.90;;;;;;5105006;28;20028;-78
2022/12/27 01:11:03;;;;;;;108.60;61.97;;;9.10;99.90;;;;;;5102591;28;20380;-78
2022/12/27 01:13:29;;;;;;;101.88;61.33;;;9.10;99.90;;;;;;5104296;28;20173;-78
2022/12/27 01:15:55;;;;;;;96.32;59.50;;;9.10;99.90;;;;;;5105410;28;20028;-78
2022/12/27 01:18:21;;;;;;;97.75;59.85;;;9.10;99.90;;;;;;5101569;28;20031;-78
2022/12/27 01:20:47;;;;;;;95.32;59.35;;;9.10;99.90;;;;;;5103582;28;20533;-78
2022/12/27 01:23:12;;;;;;;106.03;62.30;;;9.10;99.90;;;;;;5103340;28;20027;-78
2022/12/27 01:25:38;;;;;;;99.07;61.63;;;9.10;99.90;;;;;;5103148;28;20059;-78
2022/12/27 01:28:04;;;;;;;97.30;61.53;;;9.10;99.90;;;;;;5103525;28;20092;-78
2022/12/27 01:30:29;;;;;;;96.55;60.22;;;9.10;99.90;;;;;;5102620;28;20027;-78
2022/12/27 01:32:55;;;;;;;108.82;62.85;;;9.10;99.90;;;;;;5099109;28;20115;-78
2022/12/27 01:35:21;;;;;;;94.55;61.45;;;9.10;99.90;;;;;;5098117;28;20034;-78
2022/12/27 01:37:47;;;;;;;94.80;59.13;;;9.20;99.90;;;;;;5104511;28;20027;-78
2022/12/27 01:40:13;;;;;;;95.22;58.70;;;9.10;99.90;;;;;;5101313;28;20099;-78
2022/12/27 01:42:50;;;;;;;102.20;60.58;;;9.10;99.90;;;;;;5104621;28;20035;-78
2022/12/27 01:45:27;;;;;;;101.20;60.80;;;9.10;99.90;;;;;;5102179;28;20448;-78
2022/12/27 01:48:08;;;;;;;101.03;60.03;;;9.10;99.90;;;;;;5101953;27;20034;-78
2022/12/27 01:50:42;;;;;;;92.47;57.20;;;9.10;99.90;;;;;;5099806;28;20082;-78
2022/12/27 01:53:21;;;;;;;94.30;58.10;;;9.10;99.90;;;;;;5101856;28;20072;-78
2022/12/27 01:56:03;;;;;;;97.85;57.08;;;9.10;99.90;;;;;;5102350;28;20019;-78
2022/12/27 01:58:38;;;;;;;98.35;59.70;;;9.10;99.90;;;;;;5101361;28;20035;-78
2022/12/27 02:01:10;;;;;;;93.90;58.10;;;9.10;99.90;;;;;;5102390;28;20103;-78
2022/12/27 02:03:54;;;;;;;105.38;60.83;;;9.10;99.90;;;;;;5103163;28;20498;-78
2022/12/27 02:06:22;;;;;;;95.40;57.72;;;9.10;99.90;;;;;;5101329;28;20030;-78
2022/12/27 02:09:15;;;;;;;103.15;60.28;;;9.10;99.90;;;;;;5102223;28;20487;-78
2022/12/27 02:11:49;;;;;;;100.85;61.72;;;9.10;99.90;;;;;;5099267;28;20031;-78
2022/12/27 02:14:19;;;;;;;98.90;61.45;;;9.10;99.90;;;;;;5102913;27;20032;-78
2022/12/27 02:16:45;;;;;;;95.60;59.13;;;9.10;99.90;;;;;;5101817;28;20111;-79
2022/12/27 02:19:21;;;;;;;97.43;58.85;;;9.10;99.90;;;;;;5102879;28;20538;-78
2022/12/27 02:21:52;;;;;;;103.38;60.00;;;9.10;99.90;;;;;;5101214;28;20036;-78
2022/12/27 02:24:57;;;;;;;99.93;61.42;;;9.10;99.90;;;;;;5104320;28;20031;-79
2022/12/27 02:27:41;;;;;;;99.70;60.63;;;9.10;99.90;;;;;;5098869;28;20039;-78
2022/12/27 02:30:08;;;;;;;100.78;59.67;;;9.10;99.90;;;;;;5102206;28;20510;-78
2022/12/27 02:32:46;;;;;;;97.95;60.38;;;9.10;99.90;;;;;;5101603;28;20015;-78
2022/12/27 02:35:12;;;;;;;95.32;58.38;;;9.00;99.90;;;;;;5096163;28;20466;-79
2022/12/27 02:37:49;;;;;;;93.15;57.05;;;9.00;99.90;;;;;;5103457;28;20070;-78
2022/12/27 02:55:10;;;;;;;94.15;56.90;;;8.90;99.90;;;;;;5101140;28;20655;-79
2022/12/27 02:58:11;;;;;;;90.90;54.65;;;8.90;99.90;;;;;;5101319;28;20081;-79
2022/12/27 03:03:39;;;;;;;;;;;8.90;99.90;;;;;;5103607;28;20411;-79
2022/12/27 03:09:07;;;;;;;95.47;58.67;;;8.90;99.90;;;;;;5101494;28;20124;-79
2022/12/27 03:17:43;;;;;;;103.95;61.45;;;8.90;99.90;;;;;;5106793;28;20066;-79
2022/12/27 03:25:48;;;;;;;94.03;57.22;;;8.90;99.90;;;;;;5104660;28;20039;-79
2022/12/27 03:34:31;;;;;;;103.22;59.50;;;9.00;99.90;;;;;;5103966;28;20115;-79
2022/12/27 03:39:58;;;;;;;98.10;60.10;;;9.00;99.90;;;;;;5104524;28;20082;-79
2022/12/27 03:45:11;;;;;;;105.75;61.83;;;9.00;99.90;;;;;;5103970;28;20055;-79
2022/12/27 03:47:46;;;;;;;109.18;63.33;;;9.00;99.90;;;;;;5106470;28;20445;-79
2022/12/27 03:50:33;;;;;;;115.13;65.00;;;9.00;99.90;;;;;;5105027;28;20479;-80
2022/12/27 03:53:24;;;;;;;110.32;66.13;;;9.00;99.90;;;;;;5103331;28;20040;-79
2022/12/27 03:55:49;;;;;;;108.78;63.42;;;9.00;99.90;;;;;;5093827;28;20036;-79
2022/12/27 03:58:15;;;;;;;112.07;64.80;;;9.00;99.90;;;;;;5106282;28;20047;-79
2022/12/27 04:00:41;;;;;;;108.70;62.38;;;9.10;99.90;;;;;;5103837;28;20101;-79
2022/12/27 04:03:07;;;;;;;107.00;63.78;;;9.00;99.90;;;;;;5101940;28;20024;-79
2022/12/27 04:05:32;;;;;;;109.70;62.17;;;9.00;99.90;;;;;;5105526;28;20028;-79
2022/12/27 04:35:18;;;;;;;99.93;55.95;;;9.00;99.90;;;;;;5102671;28;20031;-79
2022/12/27 04:37:44;;;;;;;102.95;56.30;;;8.90;99.90;;;;;;5102906;28;20050;-79
2022/12/27 04:56:37;;;;;;;108.20;56.95;;;8.90;99.90;;;;;;5102048;28;20034;-79
2022/12/27 05:02:02;;;;;;;93.50;51.10;;;8.80;99.90;;;;;;5102010;28;20081;-79
2022/12/27 05:04:28;;;;;;;97.70;53.75;;;8.80;99.90;;;;;;5100040;28;20020;-79
2022/12/27 05:06:55;;;;;;;90.03;50.13;;;8.80;99.90;;;;;;5104353;28;20028;-79
2022/12/27 05:14:49;;;;;;;85.10;50.25;;;8.80;99.90;;;;;;5103657;28;20062;-79
2022/12/27 05:17:14;;;;;;;88.60;51.10;;;8.80;99.90;;;;;;5103466;28;20031;-79
2022/12/27 05:19:40;;;;;;;84.75;48.97;;;8.80;99.90;;;;;;5103150;28;20391;-79
2022/12/27 05:27:34;;;;;;;72.40;43.08;;;8.80;99.90;;;;;;5103315;28;20113;-78
2022/12/27 05:30:00;;;;;;;74.03;43.22;;;8.80;99.90;;;;;;5103291;28;20063;-79
2022/12/27 05:32:25;;;;;;;74.57;44.58;;;8.80;99.90;;;;;;5101325;28;20035;-78
2022/12/27 05:34:51;;;;;;;70.65;45.50;;;8.80;99.90;;;;;;5100378;28;20401;-79
2022/12/27 05:37:17;;;;;;;79.13;45.85;;;8.80;99.90;;;;;;5102766;28;20559;-79
2022/12/27 05:39:42;;;;;;;76.82;45.38;;;8.70;99.90;;;;;;5104598;28;20038;-79
2022/12/27 05:42:08;;;;;;;81.45;46.58;;;8.80;99.90;;;;;;5111559;28;20073;-79
2022/12/27 05:44:37;;;;;;;77.10;46.60;;;8.70;99.90;;;;;;5111500;28;20108;-79
2022/12/27 05:47:03;;;;;;;80.63;45.97;;;8.70;99.90;;;;;;5110465;28;20078;-79
2022/12/27 05:49:28;;;;;;;81.25;46.60;;;8.70;99.90;;;;;;5110101;28;20281;-79
2022/12/27 05:51:54;;;;;;;77.03;45.10;;;8.80;99.90;;;;;;5109291;28;20027;-78
2022/12/27 05:54:20;;;;;;;76.10;45.10;;;8.70;99.90;;;;;;5104527;28;20066;-79
2022/12/27 05:56:45;;;;;;;72.22;42.22;;;8.80;99.90;;;;;;5101181;28;20119;-79
2022/12/27 05:59:11;;;;;;;68.47;41.92;;;8.70;99.90;;;;;;5100692;28;20047;-79
2022/12/27 06:01:37;;;;;;;68.05;41.42;;;8.70;99.90;;;;;;5103690;28;20054;-78
2022/12/27 06:04:02;;;;;;;70.25;40.75;;;8.70;99.90;;;;;;5101392;28;20077;-79
2022/12/27 06:06:28;;;;;;;71.45;41.03;;;8.70;99.90;;;;;;5100607;28;20110;-79
2022/12/27 06:08:54;;;;;;;66.03;40.47;;;8.70;99.90;;;;;;5102658;28;20028;-78
2022/12/27 06:11:19;;;;;;;66.45;40.00;;;8.70;99.90;;;;;;5102527;28;20473;-79
2022/12/27 06:13:51;;;;;;;67.38;42.10;;;8.70;99.90;;;;;;5101969;28;20455;-79
2022/12/27 06:16:16;;;;;;;77.22;42.67;;;8.70;99.90;;;;;;5100872;28;20050;-78
2022/12/27 06:18:42;;;;;;;71.60;43.08;;;8.70;99.90;;;;;;5100926;28;20463;-79
2022/12/27 06:21:14;;;;;;;74.15;40.70;;;8.70;99.90;;;;;;5102336;28;20107;-79
2022/12/27 06:23:41;;;;;;;72.00;39.65;;;8.60;99.90;;;;;;5101559;28;20062;-78
2022/12/27 06:26:10;;;;;;;67.80;40.88;;;8.60;99.90;;;;;;5099851;28;20391;-79
2022/12/27 06:28:37;;;;;;;63.25;39.80;;;8.60;99.90;;;;;;5100656;28;20027;-79
2022/12/27 06:31:02;;;;;;;62.28;38.38;;;8.50;99.90;;;;;;5104074;28;20479;-79
2022/12/27 06:33:29;;;;;;;66.53;37.90;;;8.50;99.90;;;;;;5097467;28;20024;-79
2022/12/27 06:35:55;;;;;;;62.78;38.60;;;8.40;99.90;;;;;;5097792;28;20042;-78
2022/12/27 06:38:21;;;;;;;61.15;36.67;;;8.40;99.90;;;;;;5101470;28;20024;-78
2022/12/27 06:40:46;;;;;;;64.57;39.17;;;8.40;99.90;;;;;;5103236;28;20368;-78
2022/12/27 06:43:12;;;;;;;65.80;40.30;;;8.40;99.90;;;;;;5108753;28;20110;-78
2022/12/27 06:45:38;;;;;;;66.80;39.60;;;8.40;99.90;;;;;;5091554;28;20539;-78
2022/12/27 06:48:04;;;;;;;66.32;40.45;;;8.40;99.90;;;;;;5093215;28;20029;-79
2022/12/27 06:50:30;;;;;;;67.88;41.17;;;8.30;99.90;;;;;;5107960;28;20020;-79
2022/12/27 06:52:56;;;;;;;68.60;38.90;;;8.30;99.90;;;;;;5108702;28;20035;-79
2022/12/27 06:55:22;;;;;;;73.60;41.08;;;8.40;99.90;;;;;;5094615;28;20028;-79
2022/12/27 06:57:48;;;;;;;68.35;39.47;;;8.30;99.90;;;;;;5113197;28;20028;-79
2022/12/27 07:00:15;;;;;;;66.50;40.38;;;8.40;99.90;;;;;;5113125;28;20015;-78
2022/12/27 07:02:41;;;;;;;63.60;38.33;;;8.40;99.90;;;;;;5113385;28;20016;-79
2022/12/27 07:05:07;;;;;;;60.58;37.83;;;8.40;99.90;;;;;;5101212;28;20023;-79
2022/12/27 07:07:33;;;;;;;57.15;36.83;;;8.30;99.90;;;;;;5112019;28;20019;-79
2022/12/27 07:09:58;;;;;;;59.35;35.10;;;8.30;99.90;;;;;;5113309;28;20390;-78
2022/12/27 07:12:24;;;;;;;56.10;35.55;;;8.30;99.90;;;;;;5093784;28;20032;-78
2022/12/27 07:14:50;;;;;;;57.90;35.15;;;8.30;99.90;;;;;;5111620;28;20430;-78
2022/12/27 07:17:15;;;;;;;57.50;36.47;;;8.20;99.90;;;;;;5113109;28;20533;-78
2022/12/27 07:19:41;;;;;;;55.05;34.17;;;8.20;99.90;;;;;;5102670;28;20056;-79
2022/12/27 07:22:07;;;;;;;55.55;33.03;;;8.20;99.90;;;;;;5092665;28;20024;-78
2022/12/27 07:24:32;;;;;;;54.80;32.90;;;8.20;99.90;;;;;;5092793;28;20546;-79
2022/12/27 07:27:00;;;;;;;52.28;31.95;;;8.20;99.90;;;;;;5098205;28;20042;-78
2022/12/27 07:29:26;;;;;;;52.50;33.63;;;8.20;99.90;;;;;;5111593;28;20139;-78
2022/12/27 07:31:52;;;;;;;53.55;34.70;;;8.10;99.90;;;;;;5113102;28;20522;-79
2022/12/27 07:34:20;;;;;;;56.83;36.03;;;8.10;99.90;;;;;;5112964;28;20031;-79
2022/12/27 07:36:46;;;;;;;55.92;34.35;;;8.20;99.90;;;;;;5112943;28;20030;-78
2022/12/27 07:39:12;;;;;;;55.72;34.58;;;8.20;99.90;;;;;;5108166;28;20016;-79
2022/12/27 07:41:38;;;;;;;54.45;33.63;;;8.20;99.90;;;;;;5102805;28;20055;-79
2022/12/27 07:44:04;;;;;;;57.28;34.45;;;8.30;99.90;;;;;;5098998;28;20044;-79
2022/12/27 07:46:31;;;;;;;53.63;33.75;;;8.20;99.90;;;;;;5092661;28;20392;-79
2022/12/27 07:49:03;;;;;;;59.30;34.63;;;8.30;99.90;;;;;;5092533;28;20016;-78
2022/12/27 07:51:30;;;;;;;63.60;35.17;;;8.30;99.90;;;;;;5114296;28;20059;-79
2022/12/27 07:53:56;;;;;;;68.07;39.08;;;8.30;99.90;;;;;;5097356;28;20048;-79
2022/12/27 07:56:24;;;;;;;67.35;38.40;;;8.30;99.90;;;;;;5100965;28;20406;-75
2022/12/27 07:58:50;;;;;;;75.72;40.65;;;8.30;99.90;;;;;;5098026;28;20024;-75
2022/12/27 08:01:19;;;;;;;69.82;40.80;;;8.30;99.90;;;;;;5101609;28;20105;-75
2022/12/27 08:03:45;;;;;;;71.43;39.90;;;8.30;99.90;;;;;;5105662;28;20016;-75
2022/12/27 08:06:19;;;;;;;71.78;39.83;;;8.30;99.90;;;;;;5102871;28;20099;-75
2022/12/27 08:08:45;;;;;;;69.82;41.08;;;8.40;99.90;;;;;;5104460;28;20118;-75
2022/12/27 08:11:11;;;;;;;66.75;39.42;;;8.40;99.90;;;;;;5103496;28;20021;-75
2022/12/27 08:13:36;;;;;;;75.63;41.35;;;8.40;99.90;;;;;;5105786;28;20041;-75
2022/12/27 08:16:03;;;;;;;67.13;38.33;;;8.50;99.90;;;;;;5103122;28;20034;-75
2022/12/27 08:18:29;;;;;;;58.33;36.65;;;8.40;99.90;;;;;;5106297;28;20055;-75
2022/12/27 08:20:54;;;;;;;59.80;35.60;;;8.50;99.90;;;;;;5102553;28;20052;-75
2022/12/27 08:23:21;;;;;;;64.32;37.22;;;8.50;99.90;;;;;;5106440;28;20085;-75
2022/12/27 08:25:46;;;;;;;66.72;38.67;;;8.50;99.90;;;;;;5101435;28;20031;-75
2022/12/27 08:28:15;;;;;;;76.28;39.85;;;8.60;99.90;;;;;;5106123;28;20028;-75
2022/12/27 08:30:43;;;;;;;75.15;41.47;;;8.60;99.90;;;;;;5102612;28;20053;-75
2022/12/27 08:33:10;;;;;;;73.40;39.08;;;8.60;99.90;;;;;;5106024;28;20030;-75
2022/12/27 08:35:40;;;;;;;67.70;38.72;;;8.60;99.90;;;;;;5102130;28;20099;-75
2022/12/27 08:38:06;;;;;;;72.50;38.00;;;8.60;99.90;;;;;;5105836;28;20028;-75
2022/12/27 08:40:31;;;;;;;71.00;36.80;;;8.60;99.90;;;;;;5106067;27;20647;-75
2022/12/27 08:42:58;;;;;;;75.53;39.95;;;8.60;99.90;;;;;;5102644;28;20732;-76
2022/12/27 08:45:24;;;;;;;68.55;40.13;;;8.60;99.90;;;;;;5105220;28;20491;-75
2022/12/27 08:47:50;;;;;;;78.65;43.40;;;8.60;99.90;;;;;;5105965;28;20031;-75
2022/12/27 08:50:15;;;;;;;81.72;43.95;;;8.70;99.90;;;;;;5104595;28;20170;-75
2022/12/27 08:52:41;;;;;;;76.50;43.30;;;8.70;99.90;;;;;;5105060;28;20023;-75
2022/12/27 08:55:07;;;;;;;79.55;44.60;;;8.70;99.90;;;;;;5108319;28;20390;-75
2022/12/27 08:57:33;;;;;;;84.30;44.08;;;8.70;99.90;;;;;;5107539;28;20038;-75
2022/12/27 08:59:58;;;;;;;84.57;45.17;;;8.70;99.90;;;;;;5106140;28;20471;-75
2022/12/27 09:02:24;;;;;;;81.72;46.10;;;8.70;99.90;;;;;;5106389;28;20015;-75
2022/12/27 09:04:50;;;;;;;86.63;46.72;;;8.80;99.90;;;;;;5104622;28;20032;-75
2022/12/27 09:07:16;;;;;;;90.50;49.08;;;8.80;99.90;;;;;;5112349;28;20051;-75
2022/12/27 09:09:41;;;;;;;89.50;48.58;;;8.80;99.90;;;;;;5106989;28;20368;-75
2022/12/27 09:12:07;;;;;;;88.93;49.15;;;8.80;99.90;;;;;;5095594;28;20024;-75
2022/12/27 09:14:33;;;;;;;93.72;52.03;;;8.90;99.90;;;;;;5099571;28;20031;-75
2022/12/27 09:16:58;;;;;;;101.22;52.05;;;8.90;99.90;;;;;;5097843;28;20028;-75
2022/12/27 09:19:24;;;;;;;99.80;51.95;;;8.90;99.90;;;;;;5108646;28;20102;-75
2022/12/27 09:21:50;;;;;;;99.63;52.60;;;8.90;99.90;;;;;;5100281;28;20126;-75
2022/12/27 09:24:16;;;;;;;93.00;51.67;;;8.90;99.90;;;;;;5097250;28;20019;-75
2022/12/27 09:26:42;;;;;;;98.10;54.35;;;8.90;99.90;;;;;;5102019;28;20028;-75
2022/12/27 09:29:07;;;;;;;93.70;51.85;;;8.90;99.90;;;;;;5096429;28;20019;-75
2022/12/27 09:31:33;;;;;;;95.38;51.50;;;8.90;99.90;;;;;;5097849;28;20055;-75
2022/12/27 09:33:59;;;;;;;94.10;50.80;;;9.00;99.90;;;;;;5096852;28;20494;-75
2022/12/27 09:36:27;;;;;;;92.47;48.40;;;9.00;99.90;;;;;;5100649;28;20685;-75
2022/12/27 09:38:55;;;;;;;95.60;51.22;;;9.00;99.90;;;;;;5102006;28;20020;-75
2022/12/27 09:41:20;;;;;;;93.03;49.92;;;9.10;99.90;;;;;;5098692;28;20051;-75
2022/12/27 09:43:57;;;;;;;97.47;52.03;;;9.10;99.90;;;;;;5097946;28;20078;-75
2022/12/27 09:46:32;;;;;;;93.03;50.65;;;9.10;99.90;;;;;;5096709;28;20020;-75
2022/12/27 09:48:58;;;;;;;93.60;50.10;;;9.10;99.90;;;;;;5096690;28;20418;-75
2022/12/27 09:51:47;;;;;;;93.70;50.92;;;9.20;99.90;;;;;;5100543;28;20034;-75
2022/12/27 09:54:21;;;;;;;88.40;47.28;;;9.20;99.90;;;;;;5098423;28;20081;-75
2022/12/27 09:56:47;;;;;;;90.65;48.72;;;9.20;99.90;;;;;;5100543;28;20031;-76
2022/12/27 09:59:27;;;;;;;86.63;48.75;;;9.20;99.90;;;;;;5102970;28;20021;-75
2022/12/27 10:01:53;;;;;;;85.72;48.08;;;9.30;99.90;;;;;;5102327;28;20047;-75
2022/12/27 10:04:19;;;;;;;87.32;49.28;;;9.30;99.90;;;;;;5105205;28;20047;-76
2022/12/27 10:06:47;;;;;;;94.10;49.30;;;9.40;99.90;;;;;;5109646;27;20023;-77
2022/12/27 10:09:43;;;;;;;90.25;48.25;;;9.40;99.90;;;;;;5100723;28;20028;-75
2022/12/27 10:12:20;;;;;;;89.05;48.42;;;9.40;99.90;;;;;;5107343;28;20031;-75
2022/12/27 10:15:13;;;;;;;94.22;49.78;;;9.50;99.90;;;;;;5111527;28;20028;-76
2022/12/27 10:17:57;;;;;;;96.30;50.38;;;9.50;99.90;;;;;;5099198;28;20510;-76
2022/12/27 10:20:53;;;;;;;86.85;47.50;;;9.50;99.90;;;;;;5102594;28;20050;-76
2022/12/27 10:23:24;;;;;;;91.30;48.53;;;9.50;99.90;;;;;;5101262;28;20273;-75
2022/12/27 10:26:15;;;;;;;84.70;46.53;;;9.50;99.90;;;;;;5116589;27;20452;-77
2022/12/27 10:28:46;;;;;;;85.15;47.30;;;9.60;99.90;;;;;;5091305;28;20036;-76
2022/12/27 10:31:15;;;;;;;86.95;46.85;;;9.60;99.90;;;;;;5101540;28;20487;-75
2022/12/27 10:33:42;;;;;;;85.28;46.88;;;9.60;99.90;;;;;;5101589;28;20119;-75
2022/12/27 10:36:13;;;;;;;86.00;47.20;;;9.60;99.90;;;;;;5101234;28;20444;-76
2022/12/27 10:38:39;;;;;;;88.00;47.33;;;9.70;99.90;;;;;;5100064;28;20473;-76
2022/12/27 10:41:24;;;;;;;87.28;46.28;;;9.60;99.90;;;;;;5097702;28;20020;-76
2022/12/27 10:43:52;;;;;;;83.55;45.58;;;9.60;99.90;;;;;;5104085;28;20209;-76
2022/12/27 10:46:23;;;;;;;84.00;46.28;;;9.70;99.90;;;;;;5105243;28;20391;-76
2022/12/27 10:48:59;;;;;;;84.75;45.55;;;9.70;99.90;;;;;;5100987;28;20096;-76
2022/12/27 10:51:27;;;;;;;80.95;42.92;;;9.70;99.90;;;;;;5105713;28;20106;-76
2022/12/27 10:54:12;;;;;;;85.53;47.90;;;9.70;99.90;;;;;;5097535;28;20073;-76
2022/12/27 10:56:40;;;;;;;85.28;45.50;;;9.70;99.90;;;;;;5096319;28;20048;-76
2022/12/27 10:59:25;;;;;;;81.82;46.08;;;9.80;99.90;;;;;;5098963;28;20387;-76
2022/12/27 11:02:00;;;;;;;82.93;44.53;;;9.90;99.90;;;;;;5102311;28;20538;-76
2022/12/27 11:04:27;;;;;;;77.15;43.45;;;9.80;99.90;;;;;;5103234;28;20125;-76
2022/12/27 11:06:58;;;;;;;80.85;43.50;;;9.90;99.90;;;;;;5102984;28;20352;-75
2022/12/27 11:09:35;;;;;;;79.18;42.85;;;9.90;99.90;;;;;;5102908;28;20413;-75
2022/12/27 11:12:23;;;;;;;77.50;41.38;;;9.90;99.90;;;;;;5099595;28;20552;-75
2022/12/27 11:15:08;;;;;;;77.80;42.22;;;9.90;99.90;;;;;;5100886;28;20027;-76
2022/12/27 11:17:42;;;;;;;68.60;39.60;;;9.90;99.90;;;;;;5102534;28;20027;-79
2022/12/27 11:20:13;;;;;;;76.13;41.35;;;9.90;99.90;;;;;;5101927;28;20479;-78
2022/12/27 11:22:51;;;;;;;77.55;40.67;;;9.90;99.90;;;;;;5100798;28;20110;-78
2022/12/27 11:25:17;;;;;;;71.75;39.28;;;9.90;99.90;;;;;;5099596;28;20056;-77
2022/12/27 11:27:47;;;;;;;80.88;44.67;;;9.80;99.90;;;;;;5102033;28;20025;-77
2022/12/27 11:30:37;;;;;;;73.72;42.35;;;9.90;99.90;;;;;;5099586;28;20032;-76
2022/12/27 11:33:32;;;;;;;78.18;42.17;;;9.80;99.90;;;;;;5103175;28;20110;-75
2022/12/27 11:35:59;;;;;;;71.82;41.40;;;9.80;99.90;;;;;;5101063;28;20508;-76
2022/12/27 11:38:28;;;;;;;81.63;43.22;;;9.80;99.90;;;;;;5102962;28;20483;-75
2022/12/27 11:41:03;;;;;;;75.10;41.55;;;9.80;99.90;;;;;;5106547;28;20055;-75
2022/12/27 11:43:47;;;;;;;78.72;43.65;;;9.90;99.90;;;;;;5119103;27;20050;-75
2022/12/27 11:46:36;;;;;;;83.20;43.97;;;9.90;99.90;;;;;;5104715;28;20098;-75
2022/12/27 11:49:08;;;;;;;74.05;42.42;;;9.90;99.90;;;;;;5104524;28;20028;-75
2022/12/27 11:52:07;;;;;;;76.90;42.65;;;10.00;99.90;;;;;;5105335;28;20024;-75
2022/12/27 11:54:51;;;;;;;74.82;41.88;;;10.00;99.90;;;;;;5105298;28;20027;-75
2022/12/27 11:57:23;;;;;;;77.28;43.85;;;10.00;99.90;;;;;;5103446;28;20024;-75
2022/12/27 12:00:16;;;;;;;80.97;44.88;;;10.10;99.90;;;;;;5105948;28;20027;-75
2022/12/27 12:03:06;;;;;;;87.70;46.42;;;10.10;99.90;;;;;;5103364;28;20387;-75
2022/12/27 12:05:51;;;;;;;85.05;45.92;;;10.10;99.90;;;;;;5102123;28;20070;-75
2022/12/27 12:08:35;;;;;;;83.57;46.63;;;10.10;99.90;;;;;;5110123;28;20028;-75
2022/12/27 12:11:23;;;;;;;90.75;48.67;;;10.10;99.90;;;;;;5103048;28;20035;-75
2022/12/27 12:14:11;;;;;;;86.43;46.85;;;10.10;99.90;;;;;;5102539;28;20039;-75
2022/12/27 12:17:03;;;;;;;89.75;49.85;;;10.10;99.90;;;;;;5104388;28;20024;-75
2022/12/27 12:19:32;;;;;;;86.30;48.63;;;10.10;99.90;;;;;;5106960;28;20043;-75
2022/12/27 12:22:16;;;;;;;87.75;49.58;;;10.10;99.90;;;;;;5103688;28;20019;-75
2022/12/27 12:25:09;;;;;;;85.32;46.65;;;10.10;99.90;;;;;;5105973;28;20020;-75
2022/12/27 12:28:04;;;;;;;82.57;46.83;;;10.10;99.90;;;;;;5106248;28;20031;-75
2022/12/27 12:30:59;;;;;;;84.03;45.78;;;10.20;99.90;;;;;;5103863;28;20039;-75
2022/12/27 12:33:43;;;;;;;77.65;44.38;;;10.20;99.90;;;;;;5096800;28;20070;-75
2022/12/27 12:36:21;;;;;;;77.32;44.25;;;10.20;99.90;;;;;;5109205;28;20024;-75
2022/12/27 12:39:01;;;;;;;85.18;45.88;;;10.20;99.90;;;;;;5104423;28;20016;-75
2022/12/27 12:42:03;;;;;;;81.82;44.40;;;10.20;99.90;;;;;;5102380;28;20031;-75
2022/12/27 12:44:35;;;;;;;79.50;45.55;;;10.20;99.90;;;;;;5100857;28;20193;-75
2022/12/27 12:47:30;;;;;;;80.05;45.78;;;10.30;99.90;;;;;;5105165;28;20031;-75
2022/12/27 12:50:08;;;;;;;77.18;43.92;;;10.30;99.90;;;;;;5093999;28;20047;-75
2022/12/27 12:52:51;;;;;;;80.35;43.85;;;10.30;99.90;;;;;;5103707;28;20024;-75
2022/12/27 12:55:25;;;;;;;76.57;43.92;;;10.30;99.90;;;;;;5102068;28;20115;-75
2022/12/27 12:58:11;;;;;;;87.97;49.40;;;10.30;99.90;;;;;;5104539;28;20463;-75
2022/12/27 13:01:12;;;;;;;85.72;47.05;;;10.40;99.90;;;;;;5105399;28;20016;-75
2022/12/27 13:04:03;;;;;;;85.65;47.40;;;10.40;99.90;;;;;;5104726;28;20112;-75
2022/12/27 13:07:08;;;;;;;90.25;48.00;;;10.40;99.90;;;;;;5101822;28;20027;-75
2022/12/27 13:09:39;;;;;;;81.43;44.90;;;10.40;99.90;;;;;;5078893;28;20070;-75
2022/12/27 13:12:08;;;;;;;80.33;46.27;;;10.50;99.90;;;;;;5104672;28;20055;-75
2022/12/27 13:14:56;;;;;;;85.97;47.40;;;10.50;99.90;;;;;;5102535;28;20020;-75
2022/12/27 13:18:01;;;;;;;80.97;45.58;;;10.50;99.90;;;;;;5101458;28;20109;-75
2022/12/27 13:20:48;;;;;;;79.65;46.40;;;10.50;99.90;;;;;;5102398;28;20107;-75
2022/12/27 13:23:43;;;;;;;86.47;47.33;;;10.50;99.90;;;;;;5100134;28;20020;-75
2022/12/27 13:26:41;;;;;;;80.53;46.03;;;10.50;99.90;;;;;;5104776;28;20453;-75
2022/12/27 13:29:38;;;;;;;84.65;47.97;;;10.50;99.90;;;;;;5094363;28;20077;-75
2022/12/27 13:32:22;;;;;;;87.38;47.17;;;10.50;99.90;;;;;;5104518;28;20031;-75
2022/12/27 13:35:00;;;;;;;84.05;47.72;;;10.50;99.90;;;;;;5101580;28;20020;-75
2022/12/27 13:37:37;;;;;;;88.00;47.40;;;10.50;99.90;;;;;;5101849;28;20035;-75
2022/12/27 13:40:16;;;;;;;77.97;43.97;;;10.60;99.90;;;;;;5101545;28;20430;-75
2022/12/27 13:43:05;;;;;;;85.05;47.28;;;10.60;99.90;;;;;;5102938;28;20020;-75
2022/12/27 13:45:36;;;;;;;80.53;47.42;;;10.60;99.90;;;;;;5101709;28;20036;-75
2022/12/27 13:48:38;;;;;;;84.20;46.10;;;10.60;99.90;;;;;;5100756;28;20028;-75
2022/12/27 13:51:22;;;;;;;85.97;47.00;;;10.60;99.90;;;;;;5103047;28;20504;-75
2022/12/27 13:54:15;;;;;;;79.28;46.35;;;10.60;99.90;;;;;;5101101;28;20028;-75
2022/12/27 13:57:01;;;;;;;89.20;46.92;;;10.70;99.90;;;;;;5100948;27;20032;-75
2022/12/27 13:59:58;;;;;;;80.97;45.60;;;10.70;99.90;;;;;;5102507;28;20028;-75
2022/12/27 14:02:36;;;;;;;85.93;47.25;;;10.70;99.90;;;;;;5102944;28;20016;-75
2022/12/27 14:05:39;;;;;;;86.57;47.15;;;10.70;99.90;;;;;;5102185;28;20028;-75
2022/12/27 14:08:43;;;;;;;88.05;48.10;;;10.60;99.90;;;;;;5098682;28;20036;-75
2022/12/27 14:11:39;;;;;;;85.25;49.03;;;10.70;99.90;;;;;;5021749;28;20037;-75
2022/12/27 14:14:08;;;;;;;89.30;50.35;;;10.60;99.90;;;;;;5101341;28;20044;-75
2022/12/27 14:16:45;;;;;;;85.35;50.10;;;10.60;99.90;;;;;;5102592;28;20020;-75
2022/12/27 14:19:33;;;;;;;85.00;48.40;;;10.60;99.90;;;;;;5101685;28;20027;-75
2022/12/27 14:22:19;;;;;;;90.55;50.78;;;10.60;99.90;;;;;;5105258;28;20024;-75
2022/12/27 14:25:27;;;;;;;86.82;49.42;;;10.60;99.90;;;;;;5100384;28;20046;-75
2022/12/27 14:28:11;;;;;;;87.93;49.95;;;10.50;99.90;;;;;;5101677;28;20024;-75
2022/12/27 14:30:55;;;;;;;84.93;49.25;;;10.50;99.90;;;;;;5100121;28;20047;-75
2022/12/27 14:33:42;;;;;;;89.70;50.70;;;10.40;99.90;;;;;;5103729;28;20487;-75
2022/12/27 14:36:17;;;;;;;94.45;51.97;;;10.40;99.90;;;;;;5099319;28;20035;-75
2022/12/27 14:39:17;;;;;;;91.45;52.67;;;10.50;99.90;;;;;;5103312;28;20364;-75
2022/12/27 14:42:21;;;;;;;89.30;50.42;;;10.40;99.90;;;;;;5102037;28;20095;-75
2022/12/27 14:45:20;;;;;;;100.13;54.38;;;10.40;99.90;;;;;;5102745;28;20077;-75
2022/12/27 14:48:21;;;;;;;95.15;53.50;;;10.40;99.90;;;;;;5103212;28;20092;-75